Time;durP1;ratioP1;P1;durP2;ratioP2;P2;SDS_P1;SDS_P2;PMS_P1;PMS_P2;Temp;Humidity;BMP_temperature;BMP_pressure;BME280_temperature;BME280_humidity;BME280_pressure;Samples;Min_cycle;Max_cycle;Signal;HPM_P1;HPM_P2
2022/05/08 00:01:15;;;;;;;5.03;4.90;;;;;;;13.25;83.35;101893.19;5113834;28;20594;-69
2022/05/08 00:03:41;;;;;;;5.17;4.60;;;;;;;13.25;82.98;101891.44;5113031;28;20200;-69
2022/05/08 00:06:10;;;;;;;4.63;4.53;;;;;;;13.12;84.07;101897.97;5114088;28;20594;-68
2022/05/08 00:08:40;;;;;;;4.77;4.57;;;;;;;13.09;84.09;101892.81;5113629;28;20604;-69
2022/05/08 00:11:10;;;;;;;5.43;5.13;;;;;;;13.18;83.65;101893.38;5113982;28;20237;-68
2022/05/08 00:13:37;;;;;;;4.63;4.53;;;;;;;13.14;83.77;101897.00;5113673;28;20632;-69
2022/05/08 00:16:03;;;;;;;5.27;4.87;;;;;;;13.04;84.15;101889.47;5113562;28;20694;-68
2022/05/08 00:18:30;;;;;;;5.83;4.57;;;;;;;13.03;84.37;101903.53;5095555;28;20220;-68
2022/05/08 00:20:57;;;;;;;5.13;4.93;;;;;;;13.11;83.83;101902.38;5113597;28;20682;-68
2022/05/08 00:23:23;;;;;;;5.00;4.90;;;;;;;12.97;84.66;101899.34;5113499;28;20234;-69
2022/05/08 00:25:50;;;;;;;4.57;4.37;;;;;;;12.94;84.96;101897.66;5113523;28;20181;-68
2022/05/08 00:28:16;;;;;;;4.87;4.77;;;;;;;12.88;84.62;101892.59;5113419;28;20233;-68
2022/05/08 00:30:43;;;;;;;5.23;4.87;;;;;;;12.82;85.10;101895.44;5113774;28;20673;-68
2022/05/08 00:33:09;;;;;;;5.30;5.20;;;;;;;12.84;85.27;101890.97;5113497;28;20222;-69
2022/05/08 00:35:36;;;;;;;5.70;5.50;;;;;;;12.84;84.88;101898.84;5113647;28;20220;-69
2022/05/08 00:38:02;;;;;;;5.30;5.00;;;;;;;12.79;85.26;101898.16;5113199;28;20243;-69
2022/05/08 00:40:32;;;;;;;4.77;4.67;;;;;;;12.81;85.30;101901.59;5113365;28;20677;-68
2022/05/08 00:43:26;;;;;;;5.27;4.63;;;;;;;12.79;85.61;101897.31;5113323;28;20180;-68
2022/05/08 00:45:53;;;;;;;5.80;5.67;;;;;;;12.78;85.71;101899.03;5113391;28;20173;-68
2022/05/08 00:48:19;;;;;;;6.37;5.43;;;;;;;12.75;85.84;101899.16;5113723;28;20212;-69
2022/05/08 00:50:46;;;;;;;7.90;5.93;;;;;;;12.71;85.67;101904.53;5113634;28;20213;-69
2022/05/08 00:53:13;;;;;;;6.27;5.90;;;;;;;12.71;85.63;101901.91;5113349;28;20196;-69
2022/05/08 00:55:39;;;;;;;5.93;5.07;;;;;;;12.69;85.73;101904.59;5113202;28;20188;-69
2022/05/08 00:58:06;;;;;;;5.17;5.07;;;;;;;12.69;85.64;101907.22;5113214;28;20212;-69
2022/05/08 01:00:33;;;;;;;5.13;5.03;;;;;;;12.69;85.91;101904.59;5113791;28;20188;-69
2022/05/08 01:02:59;;;;;;;6.30;6.00;;;;;;;12.60;86.12;101903.13;5113254;28;20182;-69
2022/05/08 01:05:26;;;;;;;7.83;5.77;;;;;;;12.66;85.63;101902.06;5113236;28;20613;-69
2022/05/08 01:07:56;;;;;;;5.27;5.17;;;;;;;12.50;86.44;101903.44;5113098;28;20572;-69
2022/05/08 01:10:22;;;;;;;5.80;5.67;;;;;;;12.46;86.47;101901.81;5113477;28;20592;-69
2022/05/08 01:12:49;;;;;;;6.00;5.53;;;;;;;12.42;86.28;101903.66;5113130;28;20212;-69
2022/05/08 01:15:20;;;;;;;5.67;5.47;;;;;;;12.43;86.55;101901.91;5114143;28;20189;-69
2022/05/08 01:17:48;;;;;;;6.17;5.83;;;;;;;12.49;86.59;101906.97;5117563;28;20594;-69
2022/05/08 01:20:15;;;;;;;5.80;5.40;;;;;;;12.44;86.87;101909.75;5117307;28;20193;-69
2022/05/08 01:22:41;;;;;;;6.23;5.87;;;;;;;12.34;87.16;101905.66;5116740;28;20277;-69
2022/05/08 01:25:08;;;;;;;5.77;5.57;;;;;;;12.43;87.11;101912.41;5116879;28;20611;-69
2022/05/08 01:27:34;;;;;;;6.30;5.80;;;;;;;12.36;87.42;101909.13;5116582;28;20269;-68
2022/05/08 01:30:01;;;;;;;6.07;5.87;;;;;;;12.30;87.87;101910.16;5116601;28;20181;-68
2022/05/08 01:32:29;;;;;;;6.17;5.87;;;;;;;12.43;87.87;101907.16;5116760;28;20227;-68
2022/05/08 01:34:55;;;;;;;7.37;6.87;;;;;;;12.39;88.26;101914.28;5116399;28;20213;-68
2022/05/08 01:37:21;;;;;;;7.07;6.77;;;;;;;12.37;88.66;101914.31;5116300;28;20299;-68
2022/05/08 01:39:48;;;;;;;7.70;7.10;;;;;;;12.24;89.59;101910.34;5116852;28;20248;-68
2022/05/08 01:42:14;;;;;;;7.93;7.40;;;;;;;12.17;89.93;101913.19;5116350;28;20185;-69
2022/05/08 01:44:41;;;;;;;8.00;7.70;;;;;;;12.11;90.25;101917.69;5116350;28;20182;-68
2022/05/08 01:49:57;;;;;;;8.17;7.67;;;;;;;12.02;91.04;101923.22;5116803;28;20615;-68
2022/05/08 01:52:25;;;;;;;8.63;8.03;;;;;;;12.01;91.29;101916.25;5116421;28;20193;-68
2022/05/08 01:54:53;;;;;;;9.93;9.23;;;;;;;11.95;92.26;101921.66;5116173;28;20182;-68
2022/05/08 01:57:19;;;;;;;10.50;9.77;;;;;;;11.90;92.72;101930.56;5116265;28;20201;-68
2022/05/08 01:59:45;;;;;;;9.17;8.77;;;;;;;11.90;93.04;101928.78;5115978;28;20613;-68
2022/05/08 02:02:12;;;;;;;10.23;9.43;;;;;;;12.00;92.65;101921.50;5116540;28;20208;-68
2022/05/08 02:04:40;;;;;;;9.23;8.60;;;;;;;12.04;92.86;101931.03;5116213;28;20558;-70
2022/05/08 02:07:06;;;;;;;10.10;9.30;;;;;;;11.94;93.27;101933.06;5116168;28;20181;-68
2022/05/08 02:09:33;;;;;;;10.63;10.10;;;;;;;11.85;93.41;101935.91;5116071;28;20565;-69
2022/05/08 02:11:59;;;;;;;11.50;10.80;;;;;;;11.76;93.60;101938.75;5115802;28;20185;-69
2022/05/08 02:14:26;;;;;;;12.23;11.33;;;;;;;11.71;93.63;101944.13;5116336;28;20216;-68
2022/05/08 02:16:52;;;;;;;13.00;11.87;;;;;;;11.66;93.82;101943.41;5115907;28;20291;-68
2022/05/08 02:19:18;;;;;;;12.70;11.57;;;;;;;11.58;94.28;101945.38;5115575;28;20638;-68
2022/05/08 02:21:45;;;;;;;11.07;10.00;;;;;;;11.61;94.41;101950.53;5115600;28;20273;-68
2022/05/08 02:24:11;;;;;;;12.63;11.63;;;;;;;11.70;93.99;101950.28;5116322;28;20223;-68
2022/05/08 02:26:38;;;;;;;11.93;10.87;;;;;;;11.66;93.94;101946.03;5115238;28;20197;-69
2022/05/08 02:29:04;;;;;;;11.67;10.87;;;;;;;11.60;93.51;101948.81;5115402;28;20614;-68
2022/05/08 02:31:32;;;;;;;11.83;10.97;;;;;;;11.51;93.57;101949.91;5115743;28;20282;-68
2022/05/08 02:33:58;;;;;;;11.23;10.37;;;;;;;11.52;92.96;101958.63;5115336;28;20224;-69
2022/05/08 02:36:25;;;;;;;10.77;10.03;;;;;;;11.45;93.19;101955.31;5115252;28;20228;-69
2022/05/08 02:38:51;;;;;;;10.27;9.67;;;;;;;11.35;93.13;101966.03;5115342;28;20245;-69
2022/05/08 02:41:17;;;;;;;11.13;10.60;;;;;;;11.29;92.96;101967.94;5115228;28;20297;-68
2022/05/08 02:43:44;;;;;;;10.27;9.73;;;;;;;11.36;92.82;101962.50;5115438;28;20219;-69
2022/05/08 02:46:10;;;;;;;10.50;9.70;;;;;;;11.28;92.79;101963.56;5115124;28;20189;-68
2022/05/08 02:48:37;;;;;;;10.33;9.70;;;;;;;11.28;92.10;101976.69;5115494;28;20227;-68
2022/05/08 02:51:05;;;;;;;10.17;9.67;;;;;;;11.18;92.30;101969.06;5115585;28;20684;-68
2022/05/08 02:53:32;;;;;;;9.50;8.90;;;;;;;11.18;91.77;101975.19;5115326;28;20197;-68
2022/05/08 02:58:43;;;;;;;9.37;8.70;;;;;;;11.10;91.02;101974.50;5115005;28;20207;-68
2022/05/08 03:01:10;;;;;;;12.37;9.53;;;;;;;10.87;91.86;101963.69;5114844;28;20189;-68
2022/05/08 03:03:37;;;;;;;11.10;10.10;;;;;;;10.80;91.82;101962.97;5114789;28;20243;-68
2022/05/08 03:06:05;;;;;;;9.90;9.00;;;;;;;10.72;91.58;101959.66;5114737;28;20260;-68
2022/05/08 03:08:32;;;;;;;9.37;8.50;;;;;;;10.70;91.12;101962.28;5114849;28;20224;-69
2022/05/08 03:13:49;;;;;;;9.30;8.77;;;;;;;10.68;90.90;101963.22;5115665;28;20220;-69
2022/05/08 03:16:15;;;;;;;15.27;9.27;;;;;;;10.53;90.99;101959.19;5114489;28;20213;-69
2022/05/08 03:18:42;;;;;;;9.60;8.80;;;;;;;10.56;91.15;101959.09;5114535;28;20232;-68
2022/05/08 03:21:09;;;;;;;9.47;8.70;;;;;;;10.48;91.62;101961.03;5114728;28;20213;-68
2022/05/08 03:23:37;;;;;;;10.53;9.37;;;;;;;10.52;91.70;101969.69;5114645;28;20192;-68
2022/05/08 03:26:07;;;;;;;8.57;7.83;;;;;;;10.50;91.82;101969.69;5114919;28;20196;-69
2022/05/08 03:28:36;;;;;;;9.43;8.43;;;;;;;10.47;92.21;101975.00;5114269;28;20238;-68
2022/05/08 03:31:02;;;;;;;9.20;8.40;;;;;;;10.47;92.04;101967.16;5114539;28;20213;-68
2022/05/08 03:33:29;;;;;;;8.90;8.03;;;;;;;10.53;91.86;101969.66;5114186;28;20234;-68
2022/05/08 03:35:57;;;;;;;9.43;8.63;;;;;;;10.43;92.22;101968.13;5114461;28;20609;-68
2022/05/08 03:38:23;;;;;;;10.33;9.27;;;;;;;10.39;92.33;101971.69;5113899;28;20273;-68
2022/05/08 03:40:50;;;;;;;9.33;8.83;;;;;;;10.40;92.53;101971.66;5114164;28;20616;-68
2022/05/08 03:43:16;;;;;;;9.43;8.60;;;;;;;10.36;92.42;101977.00;5114374;28;20189;-68
2022/05/08 03:45:43;;;;;;;9.20;8.70;;;;;;;10.42;92.56;101977.72;5114340;28;20220;-68
2022/05/08 03:48:10;;;;;;;9.37;8.47;;;;;;;10.39;92.85;101976.94;5113966;28;20207;-68
2022/05/08 03:50:36;;;;;;;10.17;9.17;;;;;;;10.39;92.82;101985.66;5114551;28;20586;-69
2022/05/08 03:53:03;;;;;;;9.23;8.33;;;;;;;10.32;93.15;101970.94;5114244;28;20271;-69
2022/05/08 03:55:30;;;;;;;10.63;8.77;;;;;;;10.31;93.27;101978.84;5114188;28;20654;-68
2022/05/08 03:57:56;;;;;;;11.23;8.30;;;;;;;10.35;93.48;101981.34;5114014;28;20215;-68
2022/05/08 04:00:22;;;;;;;16.57;9.53;;;;;;;10.22;94.27;101977.25;5113858;28;20669;-68
2022/05/08 04:02:49;;;;;;;8.77;8.07;;;;;;;10.14;94.40;101972.16;5113843;28;20200;-68
2022/05/08 04:05:16;;;;;;;11.53;10.00;;;;;;;10.14;94.50;101972.16;5114069;28;20185;-68
2022/05/08 04:07:43;;;;;;;13.23;9.80;;;;;;;10.20;94.35;101976.38;5113711;28;20189;-68
2022/05/08 04:10:09;;;;;;;12.90;9.73;;;;;;;10.16;94.83;101974.75;5114001;28;20253;-68
2022/05/08 04:12:36;;;;;;;9.70;9.00;;;;;;;10.17;94.83;101974.72;5113733;28;20224;-68
2022/05/08 04:16:15;;;;;;;12.40;10.00;;;;;;;10.16;94.83;101972.13;5113938;28;20279;-68
2022/05/08 04:17:53;;;;;;;10.33;9.53;;;;;;;10.12;95.13;101984.38;5113580;28;20239;-68
2022/05/08 04:20:20;;;;;;;17.57;10.20;;;;;;;10.06;95.46;101981.88;5113898;28;20220;-68
2022/05/08 04:25:31;;;;;;;10.00;9.27;;;;;;;10.02;95.56;101989.84;5114179;28;20172;-68
2022/05/08 04:27:58;;;;;;;11.30;10.17;;;;;;;9.92;96.17;101986.50;5113742;28;20239;-68
2022/05/08 04:30:24;;;;;;;10.00;9.33;;;;;;;9.93;96.08;101989.13;5113834;28;20646;-68
2022/05/08 04:32:50;;;;;;;12.90;10.47;;;;;;;9.94;96.24;101995.22;5113798;28;20234;-68
2022/05/08 04:35:17;;;;;;;11.80;10.40;;;;;;;9.98;95.89;101996.88;5113835;28;20204;-68
2022/05/08 04:37:44;;;;;;;17.13;11.03;;;;;;;9.93;96.17;102003.97;5113556;28;20212;-68
2022/05/08 04:40:11;;;;;;;12.43;10.17;;;;;;;9.91;96.10;102005.72;5113764;28;20196;-68
2022/05/08 04:42:37;;;;;;;14.23;10.07;;;;;;;9.90;96.31;102004.00;5113425;28;20227;-68
2022/05/08 04:45:04;;;;;;;11.77;10.17;;;;;;;9.93;96.28;102009.19;5113400;28;20189;-68
2022/05/08 04:47:31;;;;;;;11.53;9.87;;;;;;;9.89;96.70;102016.22;5113598;28;20169;-68
2022/05/08 04:49:57;;;;;;;13.40;10.27;;;;;;;9.93;96.61;102020.53;5114237;28;20226;-68
2022/05/08 04:52:24;;;;;;;11.77;10.57;;;;;;;9.88;96.58;102016.25;5117617;28;20268;-68
2022/05/08 04:54:50;;;;;;;11.57;10.43;;;;;;;9.95;96.46;102020.47;5117289;28;20599;-68
2022/05/08 04:57:16;;;;;;;10.63;9.77;;;;;;;9.95;96.43;102017.88;5117512;28;20655;-68
2022/05/08 04:59:45;;;;;;;11.50;10.30;;;;;;;9.95;96.11;102023.09;5117399;28;20214;-68
2022/05/08 05:02:12;;;;;;;19.73;10.93;;;;;;;9.93;96.43;102024.88;5117149;28;20230;-68
2022/05/08 05:04:39;;;;;;;18.70;11.37;;;;;;;10.03;96.00;102021.22;5117712;28;20229;-69
2022/05/08 05:07:07;;;;;;;15.00;10.10;;;;;;;10.03;96.26;102023.81;5117656;28;20204;-68
2022/05/08 05:09:33;;;;;;;12.13;10.40;;;;;;;10.10;96.37;102032.44;5117209;28;20240;-68
2022/05/08 05:12:03;;;;;;;10.43;9.50;;;;;;;10.14;96.56;102036.69;5117225;28;20188;-68
2022/05/08 05:14:32;;;;;;;12.17;10.83;;;;;;;10.23;95.84;102036.59;5117144;28;20185;-68
2022/05/08 05:17:00;;;;;;;16.37;10.20;;;;;;;10.16;93.72;102037.56;5117333;28;20201;-68
2022/05/08 05:19:27;;;;;;;11.43;9.97;;;;;;;9.97;92.85;102039.63;5116849;28;20212;-68
2022/05/08 05:21:53;;;;;;;13.87;9.60;;;;;;;10.02;92.67;102042.19;5117037;28;20188;-68
2022/05/08 05:24:20;;;;;;;14.37;9.47;;;;;;;9.97;91.79;102038.75;5099166;28;20758;-68
2022/05/08 05:26:47;;;;;;;13.53;9.10;;;;;;;10.01;91.58;102043.06;5117526;28;20202;-68
2022/05/08 05:29:14;;;;;;;13.33;9.00;;;;;;;9.99;92.15;102039.59;5116591;28;20201;-68
2022/05/08 05:31:41;;;;;;;15.63;9.33;;;;;;;9.98;92.67;102043.97;5098815;28;20189;-68
2022/05/08 05:34:08;;;;;;;16.77;9.00;;;;;;;10.03;91.90;102041.28;5117226;28;20589;-68
2022/05/08 05:36:34;;;;;;;14.93;8.57;;;;;;;10.02;91.48;102044.78;5116778;28;20605;-68
2022/05/08 05:39:00;;;;;;;10.70;8.00;;;;;;;10.05;90.54;102048.19;5116335;28;20231;-68
2022/05/08 05:41:27;;;;;;;12.67;8.37;;;;;;;10.00;91.62;102050.06;5116675;28;20216;-68
2022/05/08 05:43:54;;;;;;;20.87;9.70;;;;;;;10.09;91.38;102052.50;5116377;28;20203;-68
2022/05/08 05:49:06;;;;;;;20.17;7.50;;;;;;;10.23;90.34;102054.03;5116985;28;20548;-68
2022/05/08 05:51:33;;;;;;;8.60;6.63;;;;;;;10.11;89.09;102060.31;5116857;28;20561;-68
2022/05/08 05:53:59;;;;;;;7.83;7.10;;;;;;;10.19;88.94;102054.06;5116212;28;20582;-69
2022/05/08 05:56:26;;;;;;;12.00;7.07;;;;;;;10.30;88.65;102060.91;5115248;28;20246;-68
2022/05/08 05:58:52;;;;;;;11.70;6.63;;;;;;;10.28;89.05;102058.28;5115905;28;20249;-68
2022/05/08 06:01:18;;;;;;;12.70;5.87;;;;;;;10.37;88.00;102062.50;5107810;28;20812;-68
2022/05/08 06:03:45;;;;;;;11.60;6.47;;;;;;;10.32;89.28;102065.19;5095206;28;20220;-69
2022/05/08 06:06:12;;;;;;;10.10;6.97;;;;;;;10.33;87.88;102066.91;5095692;28;20230;-68
2022/05/08 06:08:39;;;;;;;14.33;7.03;;;;;;;10.38;87.79;102075.56;5095416;28;20208;-68
2022/05/08 06:11:06;;;;;;;9.70;6.27;;;;;;;10.33;87.60;102073.91;5095334;28;20271;-68
2022/05/08 06:13:33;;;;;;;7.57;6.77;;;;;;;10.26;87.27;102069.69;5095360;28;20195;-68
2022/05/08 06:16:05;;;;;;;7.37;5.70;;;;;;;10.18;87.54;102075.88;5095419;28;20596;-68
2022/05/08 06:18:31;;;;;;;12.47;5.70;;;;;;;10.16;88.01;102072.44;5095154;28;20262;-69
2022/05/08 06:20:58;;;;;;;7.87;5.90;;;;;;;10.15;88.21;102089.03;5095239;28;20224;-68
2022/05/08 06:23:25;;;;;;;12.73;5.90;;;;;;;10.14;88.51;102082.09;5095209;28;20220;-68
2022/05/08 06:25:52;;;;;;;8.80;5.53;;;;;;;10.19;88.29;102080.22;5095479;28;20654;-68
2022/05/08 06:28:24;;;;;;;10.63;6.03;;;;;;;10.23;88.57;102080.22;5095570;28;20200;-69
2022/05/08 06:30:51;;;;;;;12.20;5.77;;;;;;;10.26;87.74;102080.16;5096104;28;20240;-69
2022/05/08 06:33:18;;;;;;;7.97;5.40;;;;;;;10.23;86.23;102086.31;5113983;28;20278;-68
2022/05/08 06:35:45;;;;;;;12.67;5.50;;;;;;;10.13;86.47;102089.94;5112631;28;20187;-71
2022/05/08 06:38:12;;;;;;;10.40;6.27;;;;;;;10.10;87.21;102090.00;5111936;28;20332;-68
2022/05/08 06:40:39;;;;;;;13.37;5.77;;;;;;;10.12;87.15;102086.47;5112968;28;20232;-69
2022/05/08 06:43:06;;;;;;;6.37;5.70;;;;;;;10.27;86.23;102097.59;5113639;28;20219;-69
2022/05/08 06:45:33;;;;;;;6.00;5.37;;;;;;;10.13;86.16;102097.78;5115145;28;20196;-68
2022/05/08 06:48:04;;;;;;;17.53;5.47;;;;;;;10.16;86.14;102093.38;5115276;28;20266;-68
2022/05/08 06:50:30;;;;;;;9.17;5.10;;;;;;;10.14;86.46;102094.28;5113675;28;20189;-69
2022/05/08 06:52:57;;;;;;;10.30;5.00;;;;;;;10.04;86.75;102101.44;5113054;28;20196;-69
2022/05/08 06:55:23;;;;;;;10.67;5.03;;;;;;;10.13;87.17;102103.88;5112557;28;20185;-70
2022/05/08 06:57:50;;;;;;;11.07;5.13;;;;;;;10.17;87.83;102110.81;5111821;28;20216;-69
2022/05/08 07:03:07;;;;;;;9.07;5.33;;;;;;;10.31;86.96;102110.59;5115194;28;20216;-69
2022/05/08 07:05:37;;;;;;;7.07;5.80;;;;;;;10.38;87.00;102108.75;5113386;28;20235;-70
2022/05/08 07:08:04;;;;;;;10.33;6.17;;;;;;;10.40;86.20;102109.56;5112957;28;20331;-69
2022/05/08 07:10:30;;;;;;;10.97;5.10;;;;;;;10.51;87.06;102106.75;5114948;28;20255;-69
2022/05/08 07:12:56;;;;;;;10.67;5.53;;;;;;;10.66;86.42;102114.31;5114256;28;20283;-68
2022/05/08 07:15:23;;;;;;;7.97;5.00;;;;;;;10.59;85.73;102116.19;5114526;28;20216;-68
2022/05/08 07:18:09;;;;;;;6.30;4.60;;;;;;;10.56;84.81;102129.34;5112405;28;20288;-68
2022/05/08 07:20:36;;;;;;;12.17;5.73;;;;;;;10.45;84.83;102129.53;5113781;28;20581;-68
2022/05/08 07:23:03;;;;;;;11.33;4.67;;;;;;;10.62;84.18;102131.84;5114159;28;20238;-68
2022/05/08 07:25:29;;;;;;;6.27;5.13;;;;;;;10.58;84.67;102127.56;5113604;28;20228;-69
2022/05/08 07:27:55;;;;;;;14.60;5.83;;;;;;;10.69;84.33;102130.84;5112368;28;20689;-69
2022/05/08 07:30:22;;;;;;;7.67;4.47;;;;;;;10.75;84.39;102137.72;5112158;28;20193;-69
2022/05/08 07:32:48;;;;;;;10.23;5.20;;;;;;;10.90;84.40;102134.78;5112936;28;20275;-70
2022/05/08 07:38:00;;;;;;;4.83;4.40;;;;;;;10.97;82.26;102140.78;5111797;28;20307;-69
2022/05/08 07:40:29;;;;;;;9.77;4.83;;;;;;;10.95;82.92;102145.19;5112712;28;20654;-68
2022/05/08 07:42:56;;;;;;;8.27;5.67;;;;;;;10.98;81.75;102135.50;5114352;28;20250;-69
2022/05/08 07:45:23;;;;;;;4.83;4.50;;;;;;;11.16;81.91;102142.16;5107993;28;20237;-69
2022/05/08 07:47:55;;;;;;;8.53;4.93;;;;;;;11.27;81.75;102136.66;5114207;28;20201;-69
2022/05/08 07:50:21;;;;;;;8.53;5.40;;;;;;;11.20;80.15;102143.78;5113510;28;20225;-69
2022/05/08 07:52:48;;;;;;;6.83;5.17;;;;;;;11.32;81.69;102145.28;5111639;28;20213;-70
2022/05/08 07:55:14;;;;;;;4.33;3.90;;;;;;;11.37;80.61;102147.84;5111981;28;20197;-69
2022/05/08 07:57:40;;;;;;;5.37;4.27;;;;;;;11.46;80.62;102156.34;5111347;28;20249;-69
2022/05/08 08:00:07;;;;;;;9.27;5.00;;;;;;;11.57;80.27;102151.75;5112910;28;20186;-70
2022/05/08 08:02:40;;;;;;;6.97;4.77;;;;;;;11.60;79.95;102150.81;5107115;28;20221;-69
2022/05/08 08:05:07;;;;;;;9.23;5.27;;;;;;;11.55;80.36;102150.03;5114054;28;20181;-68
2022/05/08 08:07:33;;;;;;;7.40;5.10;;;;;;;11.36;80.18;102148.69;5114002;28;20200;-69
2022/05/08 08:10:00;;;;;;;5.37;4.50;;;;;;;11.39;81.29;102153.91;5114356;28;20212;-69
2022/05/08 08:12:27;;;;;;;5.00;4.50;;;;;;;11.40;81.25;102147.75;5114242;28;20243;-69
2022/05/08 08:14:53;;;;;;;7.13;5.10;;;;;;;11.33;81.56;102154.88;5114221;28;20188;-69
2022/05/08 08:17:21;;;;;;;5.00;4.77;;;;;;;11.47;81.32;102155.44;5113982;28;20185;-69
2022/05/08 08:19:50;;;;;;;8.27;4.43;;;;;;;11.46;81.67;102152.88;5114289;28;20205;-69
2022/05/08 08:22:16;;;;;;;5.10;4.60;;;;;;;11.49;82.76;102160.66;5114143;28;20189;-68
2022/05/08 08:24:43;;;;;;;9.43;5.20;;;;;;;11.62;82.69;102162.13;5113960;28;20220;-68
2022/05/08 08:27:09;;;;;;;6.63;5.27;;;;;;;11.60;81.58;102166.53;5099747;28;20258;-68
2022/05/08 08:29:36;;;;;;;7.87;5.03;;;;;;;11.56;81.20;102165.72;5117829;28;20705;-69
2022/05/08 08:32:03;;;;;;;6.20;4.40;;;;;;;11.72;81.75;102161.03;5099469;28;20181;-69
2022/05/08 08:34:29;;;;;;;8.33;5.43;;;;;;;11.82;82.09;102156.44;5117753;28;20260;-69
2022/05/08 08:36:56;;;;;;;8.13;4.50;;;;;;;11.97;80.73;102165.72;5117996;28;20224;-69
2022/05/08 08:39:23;;;;;;;11.10;4.07;;;;;;;11.91;80.59;102166.72;5117809;28;20655;-68
2022/05/08 08:42:18;;;;;;;4.47;4.13;;;;;;;11.93;80.71;102164.06;5118062;28;20201;-69
2022/05/08 08:47:43;;;;;;;6.67;4.47;;;;;;;12.10;80.23;102170.66;5117712;28;20600;-69
2022/05/08 08:50:10;;;;;;;12.90;4.80;;;;;;;12.10;81.20;102170.66;5117544;28;20184;-69
2022/05/08 08:52:36;;;;;;;10.33;5.50;;;;;;;12.17;80.78;102167.88;5117350;28;20215;-69
2022/05/08 08:55:07;;;;;;;12.50;4.97;;;;;;;12.20;80.56;102170.41;5117587;28;20193;-69
2022/05/08 08:57:34;;;;;;;5.53;4.80;;;;;;;12.23;80.64;102171.22;5117489;28;20608;-69
2022/05/08 09:00:01;;;;;;;8.57;5.07;;;;;;;12.23;79.47;102171.22;5117127;28;20209;-69
2022/05/08 09:02:29;;;;;;;4.60;4.30;;;;;;;12.14;79.34;102168.78;5117709;28;20189;-68
2022/05/08 09:04:55;;;;;;;7.57;4.80;;;;;;;12.26;79.60;102173.75;5117137;28;20309;-68
2022/05/08 09:07:34;;;;;;;6.40;5.03;;;;;;;12.18;78.83;102170.47;5117322;28;20181;-68
2022/05/08 09:10:20;;;;;;;11.90;5.00;;;;;;;12.27;79.67;102172.84;5117307;28;20181;-68
2022/05/08 09:12:52;;;;;;;6.73;4.37;;;;;;;12.20;78.42;102166.03;5117312;28;20616;-68
2022/05/08 09:15:20;;;;;;;5.00;4.57;;;;;;;12.23;78.39;102171.22;5117279;28;20679;-68
2022/05/08 09:17:56;;;;;;;5.07;4.63;;;;;;;12.28;78.47;102171.09;5117054;28;20217;-68
2022/05/08 09:20:26;;;;;;;7.40;5.37;;;;;;;12.25;79.38;102174.66;5117080;28;20178;-68
2022/05/08 09:23:09;;;;;;;7.10;4.07;;;;;;;12.38;79.10;102167.34;5116799;28;20185;-68
2022/05/08 09:25:48;;;;;;;6.70;4.67;;;;;;;12.38;78.95;102168.19;5116786;28;20177;-68
2022/05/08 09:28:44;;;;;;;5.63;5.27;;;;;;;12.50;78.26;102166.13;5117403;28;20206;-69
2022/05/08 09:31:13;;;;;;;5.80;4.50;;;;;;;12.56;78.38;102164.22;5117199;28;20534;-68
2022/05/08 09:33:47;;;;;;;4.67;4.27;;;;;;;12.56;80.67;102165.97;5116567;28;20179;-68
2022/05/08 09:36:19;;;;;;;4.80;4.40;;;;;;;12.73;80.25;102163.78;5116962;28;20176;-68
2022/05/08 09:38:48;;;;;;;5.17;4.70;;;;;;;12.77;79.36;102165.41;5116452;28;20223;-68
2022/05/08 09:41:23;;;;;;;7.60;5.20;;;;;;;12.92;79.01;102167.63;5116457;28;20191;-68
2022/05/08 09:43:51;;;;;;;5.07;4.67;;;;;;;13.02;78.39;102164.75;5117228;28;20217;-68
2022/05/08 09:46:20;;;;;;;5.53;5.00;;;;;;;13.10;75.86;102168.88;5116532;28;20196;-68
2022/05/08 09:48:48;;;;;;;4.97;4.60;;;;;;;13.10;75.33;102168.88;5116221;28;20620;-68
2022/05/08 09:51:15;;;;;;;5.43;5.03;;;;;;;13.25;75.69;102161.50;5116234;28;20216;-68
2022/05/08 09:53:44;;;;;;;5.10;4.70;;;;;;;13.12;76.08;102161.81;5116187;28;20594;-68
2022/05/08 09:56:12;;;;;;;5.27;4.83;;;;;;;13.23;76.08;102169.44;5116728;28;20687;-68
2022/05/08 09:58:43;;;;;;;5.27;4.77;;;;;;;13.42;76.21;102160.06;5116264;28;20217;-68
2022/05/08 10:01:12;;;;;;;14.93;6.20;;;;;;;13.43;74.80;102153.94;5114175;28;20205;-69
2022/05/08 10:03:39;;;;;;;11.60;6.07;;;;;;;13.43;73.98;102159.19;5110901;28;20245;-69
2022/05/08 10:06:06;;;;;;;7.20;5.17;;;;;;;13.47;75.12;102152.03;5113226;28;20192;-69
2022/05/08 10:08:37;;;;;;;4.93;4.50;;;;;;;13.61;74.76;102155.13;5106143;28;20215;-68
2022/05/08 10:14:05;;;;;;;6.20;4.70;;;;;;;13.83;73.67;102157.94;5111258;28;20669;-69
2022/05/08 10:16:52;;;;;;;4.87;4.43;;;;;;;14.03;75.58;102152.91;5112636;28;20177;-69
2022/05/08 10:19:18;;;;;;;9.60;5.47;;;;;;;14.08;71.99;102147.50;5109746;28;20574;-69
2022/05/08 10:21:57;;;;;;;7.27;4.60;;;;;;;14.23;72.66;102156.66;5115936;28;20170;-68
2022/05/08 10:24:28;;;;;;;5.10;4.60;;;;;;;14.21;72.83;102154.06;5112262;28;20251;-69
2022/05/08 10:27:15;;;;;;;5.47;4.43;;;;;;;14.30;71.84;102147.63;5113039;28;20243;-69
2022/05/08 10:30:02;;;;;;;5.03;4.73;;;;;;;14.48;72.11;102154.06;5094970;28;20206;-68
2022/05/08 10:32:33;;;;;;;8.03;4.80;;;;;;;14.61;70.92;102133.41;5095232;28;20193;-68
2022/05/08 10:35:19;;;;;;;6.80;4.43;;;;;;;14.76;71.14;102131.09;5093677;28;20186;-69
2022/05/08 10:38:01;;;;;;;4.80;4.57;;;;;;;14.72;70.57;102136.56;5094767;28;20270;-68
2022/05/08 10:40:27;;;;;;;8.23;4.93;;;;;;;14.73;70.67;102133.00;5095079;28;20217;-68
2022/05/08 10:42:56;;;;;;;8.90;4.17;;;;;;;14.76;71.21;102131.09;5095088;28;20216;-69
2022/05/08 10:45:28;;;;;;;9.20;4.73;;;;;;;14.69;70.85;102136.66;5094806;28;20190;-69
2022/05/08 10:47:55;;;;;;;8.50;5.47;;;;;;;14.72;70.51;102128.66;5094105;28;20209;-68
2022/05/08 10:50:21;;;;;;;4.97;4.67;;;;;;;14.74;69.87;102124.16;5094666;28;20182;-68
2022/05/08 10:52:48;;;;;;;7.70;5.17;;;;;;;14.92;67.98;102126.13;5094639;28;20182;-68
2022/05/08 10:55:20;;;;;;;5.83;4.37;;;;;;;14.92;68.48;102127.91;5095469;28;20494;-68
2022/05/08 10:57:50;;;;;;;5.97;4.53;;;;;;;14.89;66.31;102128.88;5094491;28;20205;-69
2022/05/08 11:00:20;;;;;;;5.47;4.93;;;;;;;14.81;69.83;102131.78;5094391;28;20781;-69
2022/05/08 11:02:50;;;;;;;16.27;5.13;;;;;;;14.93;69.78;102126.97;5095079;28;20166;-68
2022/05/08 11:05:19;;;;;;;6.33;5.03;;;;;;;14.83;70.26;102129.09;5094380;28;20174;-68
2022/05/08 11:07:51;;;;;;;7.03;4.53;;;;;;;15.01;69.71;102128.44;5094548;28;20228;-68
2022/05/08 11:10:23;;;;;;;5.00;4.53;;;;;;;14.99;67.51;102135.53;5094659;28;20186;-68
2022/05/08 11:13:10;;;;;;;6.07;4.10;;;;;;;15.01;63.30;102133.72;5094573;28;20546;-68
2022/05/08 11:15:43;;;;;;;3.37;3.17;;;;;;;15.09;62.88;102120.22;5094589;28;20174;-68
2022/05/08 11:18:16;;;;;;;5.30;4.30;;;;;;;15.20;63.62;102130.38;5094082;28;20210;-68
2022/05/08 11:20:50;;;;;;;5.37;3.93;;;;;;;15.21;63.63;102110.97;5094553;28;20194;-68
2022/05/08 11:23:19;;;;;;;5.97;4.40;;;;;;;15.41;66.30;102116.34;5094733;28;20194;-68
2022/05/08 11:25:47;;;;;;;4.40;3.83;;;;;;;15.40;67.29;102112.00;5094583;28;20661;-68
2022/05/08 11:28:18;;;;;;;5.33;3.93;;;;;;;15.40;65.34;102109.34;5094276;28;20241;-68
2022/05/08 11:30:47;;;;;;;12.57;4.17;;;;;;;15.56;63.18;102110.47;5094542;28;20213;-68
2022/05/08 11:36:10;;;;;;;4.57;4.00;;;;;;;15.55;61.23;102107.88;5093945;28;20209;-68
2022/05/08 11:38:41;;;;;;;4.33;3.30;;;;;;;15.59;63.67;102102.44;5093791;28;20213;-68
2022/05/08 11:41:15;;;;;;;3.87;3.77;;;;;;;15.60;61.32;102101.50;5094292;28;20182;-68
2022/05/08 11:43:50;;;;;;;3.93;3.83;;;;;;;15.62;60.72;102096.19;5094022;28;20555;-68
2022/05/08 11:46:18;;;;;;;4.10;3.77;;;;;;;15.57;61.57;102093.72;5093725;28;20192;-67
2022/05/08 11:48:50;;;;;;;4.60;4.20;;;;;;;15.71;61.40;102097.59;5093800;28;20571;-68
2022/05/08 11:51:19;;;;;;;5.73;3.53;;;;;;;15.66;61.41;102095.16;5094292;28;20182;-68
2022/05/08 11:53:49;;;;;;;5.40;4.13;;;;;;;15.66;62.49;102095.16;5093541;28;20217;-68
2022/05/08 11:56:22;;;;;;;4.40;4.00;;;;;;;15.75;62.72;102093.91;5093852;28;20182;-68